sensor_id;sensor_type;location;lat;lon;timestamp;temperature;humidity
1800;DHT22;919;48.274;12.292;2022-07-29T00:01:14;20.80;99.90
1800;DHT22;919;48.274;12.292;2022-07-29T00:03:41;20.80;99.90
1800;DHT22;919;48.274;12.292;2022-07-29T00:06:08;20.70;99.90
1800;DHT22;919;48.274;12.292;2022-07-29T00:08:35;20.70;99.90
1800;DHT22;919;48.274;12.292;2022-07-29T00:11:02;20.70;99.90
1800;DHT22;919;48.274;12.292;2022-07-29T00:13:30;20.60;99.90
1800;DHT22;919;48.274;12.292;2022-07-29T00:15:57;20.50;99.90
1800;DHT22;919;48.274;12.292;2022-07-29T00:18:23;20.40;99.90
1800;DHT22;919;48.274;12.292;2022-07-29T00:20:50;20.30;99.90
1800;DHT22;919;48.274;12.292;2022-07-29T00:23:17;20.20;99.90
1800;DHT22;919;48.274;12.292;2022-07-29T00:25:43;20.10;99.90
1800;DHT22;919;48.274;12.292;2022-07-29T00:28:10;20.10;99.90
1800;DHT22;919;48.274;12.292;2022-07-29T00:30:38;20.00;99.90
1800;DHT22;919;48.274;12.292;2022-07-29T00:33:07;19.90;99.90
1800;DHT22;919;48.274;12.292;2022-07-29T00:35:34;20.00;99.90
1800;DHT22;919;48.274;12.292;2022-07-29T00:38:12;20.00;99.90
1800;DHT22;919;48.274;12.292;2022-07-29T00:40:39;20.10;99.90
1800;DHT22;919;48.274;12.292;2022-07-29T00:43:07;20.00;99.90
1800;DHT22;919;48.274;12.292;2022-07-29T00:45:34;19.90;99.90
1800;DHT22;919;48.274;12.292;2022-07-29T00:48:02;19.90;99.90
1800;DHT22;919;48.274;12.292;2022-07-29T00:50:31;19.80;99.90
1800;DHT22;919;48.274;12.292;2022-07-29T00:52:58;19.80;99.90
1800;DHT22;919;48.274;12.292;2022-07-29T00:55:24;19.80;99.90
1800;DHT22;919;48.274;12.292;2022-07-29T00:57:52;19.70;99.90
1800;DHT22;919;48.274;12.292;2022-07-29T01:00:21;19.70;99.90
1800;DHT22;919;48.274;12.292;2022-07-29T01:02:49;19.60;99.90
1800;DHT22;919;48.274;12.292;2022-07-29T01:05:19;19.50;99.90
1800;DHT22;919;48.274;12.292;2022-07-29T01:07:47;19.40;99.90
1800;DHT22;919;48.274;12.292;2022-07-29T01:10:15;19.60;99.90
1800;DHT22;919;48.274;12.292;2022-07-29T01:12:44;19.70;99.90
1800;DHT22;919;48.274;12.292;2022-07-29T01:15:11;19.70;99.90
1800;DHT22;919;48.274;12.292;2022-07-29T01:17:43;19.70;99.90
1800;DHT22;919;48.274;12.292;2022-07-29T01:20:15;19.50;99.90
1800;DHT22;919;48.274;12.292;2022-07-29T01:26:03;19.40;99.90
1800;DHT22;919;48.274;12.292;2022-07-29T01:29:08;19.30;99.90
1800;DHT22;919;48.274;12.292;2022-07-29T01:31:43;19.30;99.90
1800;DHT22;919;48.274;12.292;2022-07-29T01:34:21;19.20;99.90
1800;DHT22;919;48.274;12.292;2022-07-29T01:36:54;19.30;99.90
1800;DHT22;919;48.274;12.292;2022-07-29T01:39:26;19.30;99.90
1800;DHT22;919;48.274;12.292;2022-07-29T01:41:58;19.10;99.90
1800;DHT22;919;48.274;12.292;2022-07-29T01:44:32;19.10;99.90
1800;DHT22;919;48.274;12.292;2022-07-29T01:47:05;19.10;99.90
1800;DHT22;919;48.274;12.292;2022-07-29T01:49:39;19.10;99.90
1800;DHT22;919;48.274;12.292;2022-07-29T01:52:10;19.00;99.90
1800;DHT22;919;48.274;12.292;2022-07-29T01:54:41;19.00;99.90
1800;DHT22;919;48.274;12.292;2022-07-29T01:57:09;18.80;99.90
1800;DHT22;919;48.274;12.292;2022-07-29T01:59:39;18.70;99.90
1800;DHT22;919;48.274;12.292;2022-07-29T02:02:08;18.70;99.90
1800;DHT22;919;48.274;12.292;2022-07-29T02:04:37;18.70;99.90
1800;DHT22;919;48.274;12.292;2022-07-29T02:07:07;18.60;99.90
1800;DHT22;919;48.274;12.292;2022-07-29T02:09:38;18.60;99.90
1800;DHT22;919;48.274;12.292;2022-07-29T02:12:07;18.60;99.90
1800;DHT22;919;48.274;12.292;2022-07-29T02:14:42;18.60;99.90
1800;DHT22;919;48.274;12.292;2022-07-29T02:17:11;18.60;99.90
1800;DHT22;919;48.274;12.292;2022-07-29T02:19:39;18.50;99.90
1800;DHT22;919;48.274;12.292;2022-07-29T02:22:11;18.50;99.90
1800;DHT22;919;48.274;12.292;2022-07-29T02:24:39;18.40;99.90
1800;DHT22;919;48.274;12.292;2022-07-29T02:27:07;18.30;99.90
1800;DHT22;919;48.274;12.292;2022-07-29T02:29:35;18.20;99.90
1800;DHT22;919;48.274;12.292;2022-07-29T02:32:06;18.20;99.90
1800;DHT22;919;48.274;12.292;2022-07-29T02:34:35;18.20;99.90
1800;DHT22;919;48.274;12.292;2022-07-29T02:37:04;18.20;99.90
1800;DHT22;919;48.274;12.292;2022-07-29T02:39:31;18.20;99.90
1800;DHT22;919;48.274;12.292;2022-07-29T02:42:02;18.10;99.90
1800;DHT22;919;48.274;12.292;2022-07-29T02:44:30;18.10;99.90
1800;DHT22;919;48.274;12.292;2022-07-29T02:47:03;18.10;99.90
1800;DHT22;919;48.274;12.292;2022-07-29T02:49:36;18.20;99.90
1800;DHT22;919;48.274;12.292;2022-07-29T02:52:06;18.10;99.90
1800;DHT22;919;48.274;12.292;2022-07-29T02:54:39;18.10;99.90
1800;DHT22;919;48.274;12.292;2022-07-29T02:57:13;18.00;99.90
1800;DHT22;919;48.274;12.292;2022-07-29T02:59:44;18.00;99.90
1800;DHT22;919;48.274;12.292;2022-07-29T03:02:13;17.90;99.90
1800;DHT22;919;48.274;12.292;2022-07-29T03:04:42;17.80;99.90
1800;DHT22;919;48.274;12.292;2022-07-29T03:07:11;17.80;99.90
1800;DHT22;919;48.274;12.292;2022-07-29T03:09:40;17.70;99.90
1800;DHT22;919;48.274;12.292;2022-07-29T03:12:08;17.70;99.90
1800;DHT22;919;48.274;12.292;2022-07-29T03:14:36;17.70;99.90
1800;DHT22;919;48.274;12.292;2022-07-29T03:17:03;17.70;99.90
1800;DHT22;919;48.274;12.292;2022-07-29T03:19:31;17.70;99.90
1800;DHT22;919;48.274;12.292;2022-07-29T03:21:59;17.70;99.90
1800;DHT22;919;48.274;12.292;2022-07-29T03:24:28;17.60;99.90
1800;DHT22;919;48.274;12.292;2022-07-29T03:26:56;17.60;99.90
1800;DHT22;919;48.274;12.292;2022-07-29T03:29:23;17.60;99.90
1800;DHT22;919;48.274;12.292;2022-07-29T03:31:50;17.60;99.90
1800;DHT22;919;48.274;12.292;2022-07-29T03:34:17;17.60;99.90
1800;DHT22;919;48.274;12.292;2022-07-29T03:36:44;17.70;99.90
1800;DHT22;919;48.274;12.292;2022-07-29T03:39:18;17.70;99.90
1800;DHT22;919;48.274;12.292;2022-07-29T03:41:48;17.70;99.90
1800;DHT22;919;48.274;12.292;2022-07-29T03:44:16;17.60;99.90
1800;DHT22;919;48.274;12.292;2022-07-29T03:46:44;17.50;99.90
1800;DHT22;919;48.274;12.292;2022-07-29T03:49:14;17.50;99.90
1800;DHT22;919;48.274;12.292;2022-07-29T03:51:41;17.60;99.90
1800;DHT22;919;48.274;12.292;2022-07-29T03:54:09;17.70;99.90
1800;DHT22;919;48.274;12.292;2022-07-29T03:56:39;17.70;99.90
1800;DHT22;919;48.274;12.292;2022-07-29T03:59:07;17.80;99.90
1800;DHT22;919;48.274;12.292;2022-07-29T04:01:35;17.80;99.90
1800;DHT22;919;48.274;12.292;2022-07-29T04:04:02;17.80;99.90
1800;DHT22;919;48.274;12.292;2022-07-29T04:06:38;17.80;99.90
1800;DHT22;919;48.274;12.292;2022-07-29T04:09:05;17.70;99.90
1800;DHT22;919;48.274;12.292;2022-07-29T04:11:32;17.70;99.90
1800;DHT22;919;48.274;12.292;2022-07-29T04:14:01;17.70;99.90
1800;DHT22;919;48.274;12.292;2022-07-29T04:16:27;17.70;99.90
1800;DHT22;919;48.274;12.292;2022-07-29T04:18:54;17.80;99.90
1800;DHT22;919;48.274;12.292;2022-07-29T04:21:21;17.80;99.90
1800;DHT22;919;48.274;12.292;2022-07-29T04:23:48;17.90;99.90
1800;DHT22;919;48.274;12.292;2022-07-29T04:26:15;17.80;99.90
1800;DHT22;919;48.274;12.292;2022-07-29T04:28:42;17.80;99.90
1800;DHT22;919;48.274;12.292;2022-07-29T04:31:11;17.80;99.90
1800;DHT22;919;48.274;12.292;2022-07-29T04:33:38;18.10;99.90
1800;DHT22;919;48.274;12.292;2022-07-29T04:36:05;18.10;99.90
1800;DHT22;919;48.274;12.292;2022-07-29T04:38:31;18.10;99.90
1800;DHT22;919;48.274;12.292;2022-07-29T04:40:58;18.10;99.90
1800;DHT22;919;48.274;12.292;2022-07-29T04:43:25;18.10;99.90
1800;DHT22;919;48.274;12.292;2022-07-29T04:45:52;18.10;99.90
1800;DHT22;919;48.274;12.292;2022-07-29T04:48:20;18.10;99.90
1800;DHT22;919;48.274;12.292;2022-07-29T04:50:46;18.20;99.90
1800;DHT22;919;48.274;12.292;2022-07-29T04:53:13;18.20;99.90
1800;DHT22;919;48.274;12.292;2022-07-29T04:55:40;18.20;99.90
1800;DHT22;919;48.274;12.292;2022-07-29T04:58:07;18.20;99.90
1800;DHT22;919;48.274;12.292;2022-07-29T05:00:34;18.10;99.90
1800;DHT22;919;48.274;12.292;2022-07-29T05:03:01;18.10;99.90
1800;DHT22;919;48.274;12.292;2022-07-29T05:05:29;18.20;99.90
1800;DHT22;919;48.274;12.292;2022-07-29T05:07:56;18.20;99.90
1800;DHT22;919;48.274;12.292;2022-07-29T05:10:23;18.30;99.90
1800;DHT22;919;48.274;12.292;2022-07-29T05:12:50;18.40;99.90
1800;DHT22;919;48.274;12.292;2022-07-29T05:15:16;18.40;99.90
1800;DHT22;919;48.274;12.292;2022-07-29T05:17:43;18.50;99.90
1800;DHT22;919;48.274;12.292;2022-07-29T05:20:10;18.60;99.90
1800;DHT22;919;48.274;12.292;2022-07-29T05:22:38;18.80;99.90
1800;DHT22;919;48.274;12.292;2022-07-29T05:25:06;18.90;99.90
1800;DHT22;919;48.274;12.292;2022-07-29T05:27:35;19.00;99.90
1800;DHT22;919;48.274;12.292;2022-07-29T05:30:02;19.20;99.90
1800;DHT22;919;48.274;12.292;2022-07-29T05:32:28;19.40;99.90
1800;DHT22;919;48.274;12.292;2022-07-29T05:34:55;19.70;99.90
1800;DHT22;919;48.274;12.292;2022-07-29T05:37:22;20.00;99.90
1800;DHT22;919;48.274;12.292;2022-07-29T05:39:50;20.30;99.90
1800;DHT22;919;48.274;12.292;2022-07-29T05:42:17;20.40;99.90
1800;DHT22;919;48.274;12.292;2022-07-29T05:44:44;20.50;99.90
1800;DHT22;919;48.274;12.292;2022-07-29T05:47:10;20.60;99.90
1800;DHT22;919;48.274;12.292;2022-07-29T05:49:37;20.80;99.90
1800;DHT22;919;48.274;12.292;2022-07-29T05:52:05;21.10;99.90
1800;DHT22;919;48.274;12.292;2022-07-29T05:54:31;21.30;99.90
1800;DHT22;919;48.274;12.292;2022-07-29T05:56:59;21.60;99.90
1800;DHT22;919;48.274;12.292;2022-07-29T05:59:26;21.90;99.90
1800;DHT22;919;48.274;12.292;2022-07-29T06:01:53;22.10;99.90
1800;DHT22;919;48.274;12.292;2022-07-29T06:04:20;22.30;99.90
1800;DHT22;919;48.274;12.292;2022-07-29T06:06:46;22.40;99.90
1800;DHT22;919;48.274;12.292;2022-07-29T06:09:13;22.50;99.90
1800;DHT22;919;48.274;12.292;2022-07-29T06:11:40;22.70;99.90
1800;DHT22;919;48.274;12.292;2022-07-29T06:14:08;22.70;99.90
1800;DHT22;919;48.274;12.292;2022-07-29T06:16:35;22.80;99.90
1800;DHT22;919;48.274;12.292;2022-07-29T06:19:01;22.90;99.90
1800;DHT22;919;48.274;12.292;2022-07-29T06:21:29;22.80;99.90
1800;DHT22;919;48.274;12.292;2022-07-29T06:23:56;22.80;99.90
1800;DHT22;919;48.274;12.292;2022-07-29T06:26:23;22.50;99.90
1800;DHT22;919;48.274;12.292;2022-07-29T06:28:49;22.40;99.90
1800;DHT22;919;48.274;12.292;2022-07-29T06:31:17;22.30;99.90
1800;DHT22;919;48.274;12.292;2022-07-29T06:33:44;22.50;99.90
1800;DHT22;919;48.274;12.292;2022-07-29T06:36:11;22.60;99.90
1800;DHT22;919;48.274;12.292;2022-07-29T06:38:37;22.60;99.90
1800;DHT22;919;48.274;12.292;2022-07-29T06:41:08;22.60;99.90
1800;DHT22;919;48.274;12.292;2022-07-29T06:43:39;22.80;99.90
1800;DHT22;919;48.274;12.292;2022-07-29T06:46:08;22.90;99.90
1800;DHT22;919;48.274;12.292;2022-07-29T06:48:36;22.90;99.90
1800;DHT22;919;48.274;12.292;2022-07-29T06:51:04;22.90;99.90
1800;DHT22;919;48.274;12.292;2022-07-29T06:53:32;22.90;99.90
1800;DHT22;919;48.274;12.292;2022-07-29T06:56:00;22.90;99.90
1800;DHT22;919;48.274;12.292;2022-07-29T06:58:27;22.90;99.90
1800;DHT22;919;48.274;12.292;2022-07-29T07:00:55;22.90;99.90
1800;DHT22;919;48.274;12.292;2022-07-29T07:03:22;22.90;99.90
1800;DHT22;919;48.274;12.292;2022-07-29T07:05:52;23.10;99.90
1800;DHT22;919;48.274;12.292;2022-07-29T07:08:19;23.30;99.90
1800;DHT22;919;48.274;12.292;2022-07-29T07:10:46;23.40;99.90
1800;DHT22;919;48.274;12.292;2022-07-29T07:13:13;23.40;99.90
1800;DHT22;919;48.274;12.292;2022-07-29T07:15:40;23.30;99.90
1800;DHT22;919;48.274;12.292;2022-07-29T07:18:07;23.20;99.90
1800;DHT22;919;48.274;12.292;2022-07-29T07:20:34;23.20;99.90
1800;DHT22;919;48.274;12.292;2022-07-29T07:23:03;23.30;99.90
1800;DHT22;919;48.274;12.292;2022-07-29T07:25:30;23.30;99.90
1800;DHT22;919;48.274;12.292;2022-07-29T07:27:57;23.30;99.90
1800;DHT22;919;48.274;12.292;2022-07-29T07:30:24;23.20;99.90
1800;DHT22;919;48.274;12.292;2022-07-29T07:32:51;23.40;99.90
1800;DHT22;919;48.274;12.292;2022-07-29T07:35:17;23.40;99.90
1800;DHT22;919;48.274;12.292;2022-07-29T07:37:45;23.50;99.90
1800;DHT22;919;48.274;12.292;2022-07-29T07:40:13;23.40;99.90
1800;DHT22;919;48.274;12.292;2022-07-29T07:42:40;23.40;99.90
1800;DHT22;919;48.274;12.292;2022-07-29T07:45:08;23.50;99.90
1800;DHT22;919;48.274;12.292;2022-07-29T07:47:35;23.50;99.90
1800;DHT22;919;48.274;12.292;2022-07-29T07:50:03;23.60;99.90
1800;DHT22;919;48.274;12.292;2022-07-29T07:52:30;23.70;99.90
1800;DHT22;919;48.274;12.292;2022-07-29T07:54:57;23.80;99.90
1800;DHT22;919;48.274;12.292;2022-07-29T07:57:25;23.80;99.90
1800;DHT22;919;48.274;12.292;2022-07-29T07:59:51;23.70;99.90
1800;DHT22;919;48.274;12.292;2022-07-29T08:02:18;23.80;99.90
1800;DHT22;919;48.274;12.292;2022-07-29T08:04:45;23.90;99.90
1800;DHT22;919;48.274;12.292;2022-07-29T08:07:12;23.90;99.90
1800;DHT22;919;48.274;12.292;2022-07-29T08:09:40;24.00;99.90
1800;DHT22;919;48.274;12.292;2022-07-29T08:12:07;24.10;99.90
1800;DHT22;919;48.274;12.292;2022-07-29T08:14:35;24.20;99.90
1800;DHT22;919;48.274;12.292;2022-07-29T08:17:02;24.30;99.90
1800;DHT22;919;48.274;12.292;2022-07-29T08:19:29;24.30;99.90
1800;DHT22;919;48.274;12.292;2022-07-29T08:21:55;24.40;99.90
1800;DHT22;919;48.274;12.292;2022-07-29T08:24:22;24.50;99.90
1800;DHT22;919;48.274;12.292;2022-07-29T08:27:06;24.60;99.90
1800;DHT22;919;48.274;12.292;2022-07-29T08:29:35;24.80;99.90
1800;DHT22;919;48.274;12.292;2022-07-29T08:32:04;24.80;99.90
1800;DHT22;919;48.274;12.292;2022-07-29T08:34:31;24.80;99.90
1800;DHT22;919;48.274;12.292;2022-07-29T08:36:57;24.80;99.90
1800;DHT22;919;48.274;12.292;2022-07-29T08:39:25;24.80;99.90
1800;DHT22;919;48.274;12.292;2022-07-29T08:41:52;24.80;99.90
1800;DHT22;919;48.274;12.292;2022-07-29T08:44:20;25.00;99.90
1800;DHT22;919;48.274;12.292;2022-07-29T08:46:49;25.00;99.90
1800;DHT22;919;48.274;12.292;2022-07-29T08:49:16;25.10;99.90
1800;DHT22;919;48.274;12.292;2022-07-29T08:51:43;25.20;99.90
1800;DHT22;919;48.274;12.292;2022-07-29T08:54:11;25.50;99.90
1800;DHT22;919;48.274;12.292;2022-07-29T08:56:42;25.40;99.90
1800;DHT22;919;48.274;12.292;2022-07-29T08:59:10;25.50;99.90
1800;DHT22;919;48.274;12.292;2022-07-29T09:01:38;25.50;99.90
1800;DHT22;919;48.274;12.292;2022-07-29T09:04:11;25.70;99.90
1800;DHT22;919;48.274;12.292;2022-07-29T09:06:44;25.90;99.90
1800;DHT22;919;48.274;12.292;2022-07-29T09:09:11;26.10;99.90
1800;DHT22;919;48.274;12.292;2022-07-29T09:11:39;26.40;99.90
1800;DHT22;919;48.274;12.292;2022-07-29T09:14:06;26.50;99.90
1800;DHT22;919;48.274;12.292;2022-07-29T09:16:49;26.80;99.90
1800;DHT22;919;48.274;12.292;2022-07-29T09:19:27;27.30;99.90
1800;DHT22;919;48.274;12.292;2022-07-29T09:21:56;27.50;99.90
1800;DHT22;919;48.274;12.292;2022-07-29T09:24:36;27.20;99.90
1800;DHT22;919;48.274;12.292;2022-07-29T09:27:12;27.20;99.90
1800;DHT22;919;48.274;12.292;2022-07-29T09:29:44;27.10;99.90
1800;DHT22;919;48.274;12.292;2022-07-29T09:32:11;26.80;99.90
1800;DHT22;919;48.274;12.292;2022-07-29T09:34:39;26.90;99.90
1800;DHT22;919;48.274;12.292;2022-07-29T09:37:06;26.90;99.90
1800;DHT22;919;48.274;12.292;2022-07-29T09:39:35;26.80;99.90
1800;DHT22;919;48.274;12.292;2022-07-29T09:42:04;26.80;99.90
1800;DHT22;919;48.274;12.292;2022-07-29T09:44:42;26.90;99.90
1800;DHT22;919;48.274;12.292;2022-07-29T09:47:09;26.90;99.90
1800;DHT22;919;48.274;12.292;2022-07-29T09:49:52;27.20;99.90
1800;DHT22;919;48.274;12.292;2022-07-29T09:52:19;27.60;99.90
1800;DHT22;919;48.274;12.292;2022-07-29T09:54:46;27.70;99.90
1800;DHT22;919;48.274;12.292;2022-07-29T09:57:24;27.80;99.90
1800;DHT22;919;48.274;12.292;2022-07-29T09:59:58;27.80;99.90
1800;DHT22;919;48.274;12.292;2022-07-29T10:02:30;27.80;99.90
1800;DHT22;919;48.274;12.292;2022-07-29T10:04:59;27.80;99.90
1800;DHT22;919;48.274;12.292;2022-07-29T10:07:26;27.80;99.90
1800;DHT22;919;48.274;12.292;2022-07-29T10:09:54;27.90;99.90
1800;DHT22;919;48.274;12.292;2022-07-29T10:12:21;28.10;99.90
1800;DHT22;919;48.274;12.292;2022-07-29T10:14:49;28.20;99.90
1800;DHT22;919;48.274;12.292;2022-07-29T10:17:16;28.10;99.90
1800;DHT22;919;48.274;12.292;2022-07-29T10:19:44;28.20;99.90
1800;DHT22;919;48.274;12.292;2022-07-29T10:22:12;28.40;99.90
1800;DHT22;919;48.274;12.292;2022-07-29T10:24:39;28.50;99.90
1800;DHT22;919;48.274;12.292;2022-07-29T10:27:07;28.50;99.90
1800;DHT22;919;48.274;12.292;2022-07-29T10:29:34;28.40;99.90
1800;DHT22;919;48.274;12.292;2022-07-29T10:32:15;28.50;99.90
1800;DHT22;919;48.274;12.292;2022-07-29T10:35:06;28.50;99.90
1800;DHT22;919;48.274;12.292;2022-07-29T10:37:52;28.60;99.90
1800;DHT22;919;48.274;12.292;2022-07-29T10:40:30;29.00;99.90
1800;DHT22;919;48.274;12.292;2022-07-29T10:43:21;29.30;99.90
1800;DHT22;919;48.274;12.292;2022-07-29T10:45:49;29.70;99.90
1800;DHT22;919;48.274;12.292;2022-07-29T10:48:21;30.00;99.90
1800;DHT22;919;48.274;12.292;2022-07-29T10:50:56;30.20;99.90
1800;DHT22;919;48.274;12.292;2022-07-29T10:53:47;30.30;99.90
1800;DHT22;919;48.274;12.292;2022-07-29T10:56:24;30.30;99.90
1800;DHT22;919;48.274;12.292;2022-07-29T10:59:25;30.70;99.90
1800;DHT22;919;48.274;12.292;2022-07-29T11:01:53;30.60;99.90
1800;DHT22;919;48.274;12.292;2022-07-29T11:07:24;31.10;99.90
1800;DHT22;919;48.274;12.292;2022-07-29T11:10:26;31.00;99.90
1800;DHT22;919;48.274;12.292;2022-07-29T11:12:53;30.60;99.90
1800;DHT22;919;48.274;12.292;2022-07-29T11:15:21;30.20;99.90
1800;DHT22;919;48.274;12.292;2022-07-29T11:18:05;30.10;99.90
1800;DHT22;919;48.274;12.292;2022-07-29T11:20:34;30.00;99.90
1800;DHT22;919;48.274;12.292;2022-07-29T11:23:18;30.10;99.90
1800;DHT22;919;48.274;12.292;2022-07-29T11:26:16;30.20;99.90
1800;DHT22;919;48.274;12.292;2022-07-29T11:28:54;30.10;99.90
1800;DHT22;919;48.274;12.292;2022-07-29T11:31:38;29.70;99.90
1800;DHT22;919;48.274;12.292;2022-07-29T11:34:17;29.70;99.90
1800;DHT22;919;48.274;12.292;2022-07-29T11:37:19;29.80;99.90
1800;DHT22;919;48.274;12.292;2022-07-29T11:42:44;29.40;99.90
1800;DHT22;919;48.274;12.292;2022-07-29T11:45:17;29.30;99.90
1800;DHT22;919;48.274;12.292;2022-07-29T11:47:49;29.50;99.90
1800;DHT22;919;48.274;12.292;2022-07-29T11:50:17;29.50;99.90
1800;DHT22;919;48.274;12.292;2022-07-29T11:52:46;29.40;99.90
1800;DHT22;919;48.274;12.292;2022-07-29T11:55:14;29.60;99.90
1800;DHT22;919;48.274;12.292;2022-07-29T11:57:47;29.60;99.90
1800;DHT22;919;48.274;12.292;2022-07-29T12:00:27;29.50;99.90
1800;DHT22;919;48.274;12.292;2022-07-29T12:02:54;29.30;99.90
1800;DHT22;919;48.274;12.292;2022-07-29T12:05:34;29.30;99.90
1800;DHT22;919;48.274;12.292;2022-07-29T12:08:05;29.30;99.90
1800;DHT22;919;48.274;12.292;2022-07-29T12:10:32;29.10;99.90
1800;DHT22;919;48.274;12.292;2022-07-29T12:13:00;28.80;99.90
1800;DHT22;919;48.274;12.292;2022-07-29T12:15:27;28.90;99.90
1800;DHT22;919;48.274;12.292;2022-07-29T12:17:54;29.10;99.90
1800;DHT22;919;48.274;12.292;2022-07-29T12:20:25;29.10;99.90
1800;DHT22;919;48.274;12.292;2022-07-29T12:22:52;28.90;99.90
1800;DHT22;919;48.274;12.292;2022-07-29T12:25:21;28.90;99.90
1800;DHT22;919;48.274;12.292;2022-07-29T12:27:56;29.10;99.90
1800;DHT22;919;48.274;12.292;2022-07-29T12:30:34;29.00;99.90
1800;DHT22;919;48.274;12.292;2022-07-29T12:33:10;29.10;99.90
1800;DHT22;919;48.274;12.292;2022-07-29T12:35:38;29.20;99.90
1800;DHT22;919;48.274;12.292;2022-07-29T12:38:05;29.60;99.90
1800;DHT22;919;48.274;12.292;2022-07-29T12:40:32;30.20;99.90
1800;DHT22;919;48.274;12.292;2022-07-29T12:43:06;30.40;99.90
1800;DHT22;919;48.274;12.292;2022-07-29T12:45:36;30.70;99.90
1800;DHT22;919;48.274;12.292;2022-07-29T12:48:03;30.80;99.90
1800;DHT22;919;48.274;12.292;2022-07-29T12:50:30;30.50;99.90
1800;DHT22;919;48.274;12.292;2022-07-29T12:53:08;30.10;99.90
1800;DHT22;919;48.274;12.292;2022-07-29T12:55:39;30.30;99.90
1800;DHT22;919;48.274;12.292;2022-07-29T12:58:06;30.60;99.90
1800;DHT22;919;48.274;12.292;2022-07-29T13:00:33;30.50;99.90
1800;DHT22;919;48.274;12.292;2022-07-29T13:03:01;30.30;99.90
1800;DHT22;919;48.274;12.292;2022-07-29T13:05:39;30.20;99.90
1800;DHT22;919;48.274;12.292;2022-07-29T13:08:17;30.00;99.90
1800;DHT22;919;48.274;12.292;2022-07-29T13:10:44;29.70;99.90
1800;DHT22;919;48.274;12.292;2022-07-29T13:13:12;29.70;99.90
1800;DHT22;919;48.274;12.292;2022-07-29T13:15:40;29.70;99.90
1800;DHT22;919;48.274;12.292;2022-07-29T13:18:27;29.70;99.90
1800;DHT22;919;48.274;12.292;2022-07-29T13:20:54;29.60;99.90
1800;DHT22;919;48.274;12.292;2022-07-29T13:23:21;29.50;99.90
1800;DHT22;919;48.274;12.292;2022-07-29T13:25:48;29.50;99.90
1800;DHT22;919;48.274;12.292;2022-07-29T13:28:15;29.60;99.90
1800;DHT22;919;48.274;12.292;2022-07-29T13:30:42;29.80;99.90
1800;DHT22;919;48.274;12.292;2022-07-29T13:33:09;30.10;99.90
1800;DHT22;919;48.274;12.292;2022-07-29T13:35:37;30.20;99.90
1800;DHT22;919;48.274;12.292;2022-07-29T13:38:04;30.00;99.90
1800;DHT22;919;48.274;12.292;2022-07-29T13:40:31;29.70;99.90
1800;DHT22;919;48.274;12.292;2022-07-29T13:43:00;29.60;99.90
1800;DHT22;919;48.274;12.292;2022-07-29T13:45:27;29.60;99.90
1800;DHT22;919;48.274;12.292;2022-07-29T13:47:54;29.40;99.90
1800;DHT22;919;48.274;12.292;2022-07-29T13:50:21;29.30;99.90
1800;DHT22;919;48.274;12.292;2022-07-29T13:52:49;29.50;99.90
1800;DHT22;919;48.274;12.292;2022-07-29T13:55:16;30.00;99.90
1800;DHT22;919;48.274;12.292;2022-07-29T13:57:43;30.70;99.90
1800;DHT22;919;48.274;12.292;2022-07-29T14:00:10;30.90;99.90
1800;DHT22;919;48.274;12.292;2022-07-29T14:02:37;31.10;99.90
1800;DHT22;919;48.274;12.292;2022-07-29T14:05:05;31.20;99.90
1800;DHT22;919;48.274;12.292;2022-07-29T14:07:32;31.20;99.90
1800;DHT22;919;48.274;12.292;2022-07-29T14:10:00;31.10;99.90
1800;DHT22;919;48.274;12.292;2022-07-29T14:12:27;30.90;99.90
1800;DHT22;919;48.274;12.292;2022-07-29T14:14:53;30.60;99.90
1800;DHT22;919;48.274;12.292;2022-07-29T14:17:20;30.50;99.90
1800;DHT22;919;48.274;12.292;2022-07-29T14:19:47;30.30;99.90
1800;DHT22;919;48.274;12.292;2022-07-29T14:22:14;30.10;99.90
1800;DHT22;919;48.274;12.292;2022-07-29T14:24:40;30.10;99.90
1800;DHT22;919;48.274;12.292;2022-07-29T14:27:08;30.40;99.90
1800;DHT22;919;48.274;12.292;2022-07-29T14:29:35;30.90;99.90
1800;DHT22;919;48.274;12.292;2022-07-29T14:32:02;31.10;99.90
1800;DHT22;919;48.274;12.292;2022-07-29T14:34:29;31.00;99.90
1800;DHT22;919;48.274;12.292;2022-07-29T14:36:56;30.70;99.90
1800;DHT22;919;48.274;12.292;2022-07-29T14:39:23;30.70;99.90
1800;DHT22;919;48.274;12.292;2022-07-29T14:41:50;30.90;99.90
1800;DHT22;919;48.274;12.292;2022-07-29T14:44:18;31.00;99.90
1800;DHT22;919;48.274;12.292;2022-07-29T14:46:45;30.70;99.90
1800;DHT22;919;48.274;12.292;2022-07-29T14:49:12;30.50;99.90
1800;DHT22;919;48.274;12.292;2022-07-29T14:51:38;30.70;99.90
1800;DHT22;919;48.274;12.292;2022-07-29T14:54:05;31.00;99.90
1800;DHT22;919;48.274;12.292;2022-07-29T14:56:32;31.10;99.90
1800;DHT22;919;48.274;12.292;2022-07-29T14:58:59;30.70;99.90
1800;DHT22;919;48.274;12.292;2022-07-29T15:01:27;30.50;99.90
1800;DHT22;919;48.274;12.292;2022-07-29T15:03:54;30.20;99.90
1800;DHT22;919;48.274;12.292;2022-07-29T15:06:21;29.80;99.90
1800;DHT22;919;48.274;12.292;2022-07-29T15:08:48;29.50;99.90
1800;DHT22;919;48.274;12.292;2022-07-29T15:11:14;29.10;99.90
1800;DHT22;919;48.274;12.292;2022-07-29T15:13:41;28.80;99.90
1800;DHT22;919;48.274;12.292;2022-07-29T15:16:08;28.70;99.90
1800;DHT22;919;48.274;12.292;2022-07-29T15:18:36;28.50;99.90
1800;DHT22;919;48.274;12.292;2022-07-29T15:21:04;28.30;99.90
1800;DHT22;919;48.274;12.292;2022-07-29T15:23:32;28.10;99.90
1800;DHT22;919;48.274;12.292;2022-07-29T15:26:00;27.80;99.90
1800;DHT22;919;48.274;12.292;2022-07-29T15:28:27;27.70;99.90
1800;DHT22;919;48.274;12.292;2022-07-29T15:30:54;27.50;99.90
1800;DHT22;919;48.274;12.292;2022-07-29T15:33:21;27.40;99.90
1800;DHT22;919;48.274;12.292;2022-07-29T15:35:49;27.40;99.90
1800;DHT22;919;48.274;12.292;2022-07-29T15:38:16;27.30;99.90
1800;DHT22;919;48.274;12.292;2022-07-29T15:40:43;27.20;99.90
1800;DHT22;919;48.274;12.292;2022-07-29T15:43:11;27.20;99.90
1800;DHT22;919;48.274;12.292;2022-07-29T15:45:38;27.20;99.90
1800;DHT22;919;48.274;12.292;2022-07-29T15:48:06;27.20;99.90
1800;DHT22;919;48.274;12.292;2022-07-29T15:50:33;27.10;99.90
1800;DHT22;919;48.274;12.292;2022-07-29T15:53:01;27.00;99.90
1800;DHT22;919;48.274;12.292;2022-07-29T15:55:28;27.00;99.90
1800;DHT22;919;48.274;12.292;2022-07-29T15:57:54;26.80;99.90
1800;DHT22;919;48.274;12.292;2022-07-29T16:00:21;26.70;99.90
1800;DHT22;919;48.274;12.292;2022-07-29T16:02:49;26.60;99.90
1800;DHT22;919;48.274;12.292;2022-07-29T16:05:15;26.40;99.90
1800;DHT22;919;48.274;12.292;2022-07-29T16:07:42;26.30;99.90
1800;DHT22;919;48.274;12.292;2022-07-29T16:10:10;26.20;99.90
1800;DHT22;919;48.274;12.292;2022-07-29T16:12:37;26.10;99.90
1800;DHT22;919;48.274;12.292;2022-07-29T16:15:04;26.00;99.90
1800;DHT22;919;48.274;12.292;2022-07-29T16:17:31;26.00;99.90
1800;DHT22;919;48.274;12.292;2022-07-29T16:19:58;26.00;99.90
1800;DHT22;919;48.274;12.292;2022-07-29T16:22:25;25.90;99.90
1800;DHT22;919;48.274;12.292;2022-07-29T16:24:51;25.80;99.90